Time;durP1;ratioP1;P1;durP2;ratioP2;P2;SDS_P1;SDS_P2;PMS_P1;PMS_P2;Temp;Humidity;BMP_temperature;BMP_pressure;BME280_temperature;BME280_humidity;BME280_pressure;Samples;Min_cycle;Max_cycle;Signal;HPM_P1;HPM_P2
2022/04/16 00:00:06;;;;;;;12.82;8.10;;;;;;;;;;1786809;80;21337;-70
2022/04/16 00:02:32;;;;;;;12.55;7.55;;;;;;;;;;1786686;80;21059;-69
2022/04/16 00:04:59;;;;;;;10.95;8.13;;;;;;;;;;1792962;80;21531;-70
2022/04/16 00:07:25;;;;;;;10.93;7.30;;;;;;;;;;1794361;80;21012;-70
2022/04/16 00:09:52;;;;;;;10.58;6.70;;;;;;;;;;1794313;80;21170;-70
2022/04/16 00:12:18;;;;;;;9.53;6.72;;;;;;;;;;1794726;80;21039;-70
2022/04/16 00:14:45;;;;;;;10.13;7.10;;;;;;;;;;1794491;80;21011;-70
2022/04/16 00:17:13;;;;;;;11.28;6.95;;;;;;;;;;1794303;80;21119;-70
2022/04/16 00:19:41;;;;;;;10.48;7.28;;;;;;;;;;1793985;80;21043;-70
2022/04/16 00:22:12;;;;;;;10.40;6.62;;;;;;;;;;1794421;80;21015;-70
2022/04/16 00:24:37;;;;;;;9.48;6.50;;;;;;;;;;1794045;80;21588;-69
2022/04/16 00:27:03;;;;;;;10.93;6.55;;;;;;;;;;1794160;80;21032;-69
2022/04/16 00:29:30;;;;;;;9.10;6.08;;;;;;;;;;1794300;80;21047;-69
2022/04/16 00:31:56;;;;;;;10.23;7.28;;;;;;;;;;1794199;80;21141;-69
2022/04/16 00:34:22;;;;;;;8.18;6.08;;;;;;;;;;1794315;80;21043;-69
2022/04/16 00:36:48;;;;;;;9.60;5.95;;;;;;;;;;1794298;80;21510;-69
2022/04/16 00:39:15;;;;;;;8.75;6.62;;;;;;;;;;1794002;80;21020;-69
2022/04/16 00:41:43;;;;;;;10.75;6.50;;;;;;;;;;1794069;80;21060;-70
2022/04/16 00:44:09;;;;;;;9.78;7.00;;;;;;;;;;1794247;80;21542;-69
2022/04/16 00:46:36;;;;;;;9.70;6.40;;;;;;;;;;1793821;80;21020;-69
2022/04/16 00:49:02;;;;;;;9.33;6.47;;;;;;;;;;1794059;80;21067;-69
2022/04/16 00:51:30;;;;;;;14.05;6.33;;;;;;;;;;1759125;80;21098;-69
2022/04/16 00:53:57;;;;;;;9.73;6.50;;;;;;;;;;1744492;82;21175;-69
2022/04/16 00:56:23;;;;;;;9.83;7.20;;;;;;;;;;1744550;82;21094;-69
2022/04/16 00:58:49;;;;;;;12.28;6.75;;;;;;;;;;1744549;82;21034;-69
2022/04/16 01:04:04;;;;;;;12.13;6.60;;;;;;;;;;1684975;81;74200;-69
2022/04/16 01:06:36;;;;;;;11.75;7.42;;;;;;;;;;1710403;84;21049;-69
2022/04/16 01:09:02;;;;;;;11.80;5.90;;;;;;;;;;1702871;83;21036;-69
2022/04/16 01:11:29;;;;;;;9.78;7.10;;;;;;;;;;1712365;83;21073;-69
2022/04/16 01:13:56;;;;;;;9.88;7.45;;;;;;;;;;1717860;83;21108;-69
2022/04/16 01:16:24;;;;;;;10.13;7.37;;;;;;;;;;1718239;83;21057;-69
2022/04/16 01:18:50;;;;;;;11.48;6.58;;;;;;;;;;1717938;83;21520;-69
2022/04/16 01:21:18;;;;;;;9.45;6.35;;;;;;;;;;1718246;83;21087;-69
2022/04/16 01:23:44;;;;;;;12.63;7.03;;;;;;;;;;1707990;83;21029;-69
2022/04/16 01:26:12;;;;;;;10.82;6.85;;;;;;;;;;1703084;83;21049;-69
2022/04/16 01:28:43;;;;;;;10.30;6.47;;;;;;;;;;1702893;83;21591;-69
2022/04/16 01:31:10;;;;;;;10.15;6.95;;;;;;;;;;1703327;83;21021;-69
2022/04/16 01:33:36;;;;;;;12.80;7.83;;;;;;;;;;1703233;84;21516;-69
2022/04/16 01:36:02;;;;;;;11.73;6.85;;;;;;;;;;1703405;83;20997;-69
2022/04/16 01:38:29;;;;;;;9.98;6.70;;;;;;;;;;1702990;84;21108;-69
2022/04/16 01:40:56;;;;;;;10.50;7.00;;;;;;;;;;1703394;84;21064;-69
2022/04/16 01:43:23;;;;;;;9.25;6.17;;;;;;;;;;1702827;84;21508;-69
2022/04/16 01:45:49;;;;;;;8.40;6.58;;;;;;;;;;1703227;83;21013;-69
2022/04/16 01:48:16;;;;;;;10.30;6.80;;;;;;;;;;1703288;84;21041;-70
2022/04/16 01:50:42;;;;;;;10.60;6.75;;;;;;;;;;1703188;83;21045;-70
2022/04/16 01:53:10;;;;;;;12.20;7.45;;;;;;;;;;1703239;83;21037;-69
2022/04/16 01:55:36;;;;;;;10.28;6.55;;;;;;;;;;1703232;84;20989;-70
2022/04/16 01:58:04;;;;;;;12.98;7.42;;;;;;;;;;1703342;84;21032;-70
2022/04/16 02:00:30;;;;;;;10.72;6.97;;;;;;;;;;1703013;83;21033;-70
2022/04/16 02:02:57;;;;;;;12.30;7.10;;;;;;;;;;1703154;84;21001;-70
2022/04/16 02:05:23;;;;;;;10.70;7.10;;;;;;;;;;1702864;83;21111;-69
2022/04/16 02:07:50;;;;;;;11.90;7.72;;;;;;;;;;1703378;84;21033;-68
2022/04/16 02:10:18;;;;;;;13.15;7.28;;;;;;;;;;1702967;83;21048;-69
2022/04/16 02:12:46;;;;;;;10.50;6.67;;;;;;;;;;1711800;83;21144;-69
2022/04/16 02:15:13;;;;;;;11.68;7.90;;;;;;;;;;1634081;87;21082;-69
2022/04/16 02:17:39;;;;;;;12.50;6.87;;;;;;;;;;1680703;85;21097;-69
2022/04/16 02:20:06;;;;;;;11.28;6.90;;;;;;;;;;1646095;86;21473;-69
2022/04/16 02:22:42;;;;;;;11.68;7.47;;;;;;;;;;1634263;88;21021;-69
2022/04/16 02:25:10;;;;;;;12.28;8.45;;;;;;;;;;1636855;88;21140;-69
2022/04/16 02:27:37;;;;;;;12.05;7.22;;;;;;;;;;1637638;86;21528;-71
2022/04/16 02:30:05;;;;;;;12.73;7.03;;;;;;;;;;1664659;86;21322;-69
2022/04/16 02:32:35;;;;;;;11.90;7.60;;;;;;;;;;1663756;86;21092;-69
2022/04/16 02:35:01;;;;;;;10.95;7.78;;;;;;;;;;1663278;86;21088;-69
2022/04/16 02:37:28;;;;;;;13.48;7.97;;;;;;;;;;1663752;86;21081;-69
2022/04/16 02:53:07;;;;;;;11.65;8.45;;;;;;;;;;1819076;79;22238;-69
2022/04/16 06:08:07;;;;;;;13.10;9.45;;;;;;;;;;1791031;80;22427;-69
2022/04/16 06:10:37;;;;;;;14.60;9.68;;;;;;;;;;1715473;83;21611;-68
2022/04/16 06:13:04;;;;;;;13.55;9.15;;;;;;;;;;1735698;82;21072;-69
2022/04/16 06:15:30;;;;;;;14.28;9.80;;;;;;;;;;1727900;82;20997;-69
2022/04/16 06:17:57;;;;;;;12.60;8.83;;;;;;;;;;1718867;82;21040;-69
2022/04/16 06:20:25;;;;;;;13.75;10.85;;;;;;;;;;1729342;82;21092;-69
2022/04/16 06:22:51;;;;;;;13.32;8.55;;;;;;;;;;1745147;82;21033;-69
2022/04/16 06:25:17;;;;;;;13.48;9.93;;;;;;;;;;1746275;82;21491;-69
2022/04/16 06:27:45;;;;;;;13.25;10.60;;;;;;;;;;1746515;82;21127;-70
2022/04/16 06:30:11;;;;;;;13.32;10.85;;;;;;;;;;1746628;82;21056;-72
2022/04/16 06:32:38;;;;;;;13.90;9.25;;;;;;;;;;1745217;82;21021;-70
2022/04/16 06:35:05;;;;;;;13.70;10.78;;;;;;;;;;1744791;82;21001;-70
2022/04/16 06:37:33;;;;;;;13.75;11.33;;;;;;;;;;1722098;82;21530;-70
2022/04/16 06:39:59;;;;;;;12.75;9.10;;;;;;;;;;1737344;82;21107;-70
2022/04/16 06:42:25;;;;;;;14.98;10.58;;;;;;;;;;1721554;82;21036;-79
2022/04/16 06:44:52;;;;;;;14.07;11.43;;;;;;;;;;1744990;82;21076;-81
2022/04/16 06:47:18;;;;;;;14.85;11.65;;;;;;;;;;1746912;82;21013;-79
2022/04/16 06:49:44;;;;;;;15.15;10.45;;;;;;;;;;1746547;82;21017;-79
2022/04/16 06:52:12;;;;;;;14.47;11.43;;;;;;;;;;1746957;82;21088;-78
2022/04/16 06:54:38;;;;;;;16.07;11.43;;;;;;;;;;1746901;82;21052;-79
2022/04/16 06:57:05;;;;;;;16.50;9.73;;;;;;;;;;1760224;81;21041;-79
2022/04/16 06:59:32;;;;;;;15.05;11.48;;;;;;;;;;1777285;81;21033;-78
2022/04/16 07:01:58;;;;;;;14.75;10.80;;;;;;;;;;1777481;81;21001;-79
2022/04/16 07:04:25;;;;;;;14.50;11.33;;;;;;;;;;1777214;81;21036;-79
2022/04/16 07:06:51;;;;;;;14.95;11.20;;;;;;;;;;1778524;80;21052;-78
2022/04/16 07:09:17;;;;;;;15.25;10.08;;;;;;;;;;1779932;80;21010;-79
2022/04/16 07:11:43;;;;;;;14.13;11.68;;;;;;;;;;1753640;80;21100;-80
2022/04/16 07:14:09;;;;;;;12.85;10.68;;;;;;;;;;1779853;80;21068;-80
2022/04/16 07:16:35;;;;;;;13.93;9.48;;;;;;;;;;1779988;80;21559;-80
2022/04/16 07:19:04;;;;;;;15.10;10.70;;;;;;;;;;1779418;80;21017;-80
2022/04/16 07:21:30;;;;;;;15.72;11.97;;;;;;;;;;1779897;80;20997;-80
2022/04/16 07:23:58;;;;;;;15.38;12.30;;;;;;;;;;1779574;80;21029;-80
2022/04/16 07:26:24;;;;;;;16.27;10.25;;;;;;;;;;1780099;80;21492;-80
2022/04/16 07:28:50;;;;;;;15.20;11.53;;;;;;;;;;1779790;80;21073;-80
2022/04/16 07:31:16;;;;;;;13.45;9.75;;;;;;;;;;1779765;80;21061;-80
2022/04/16 07:33:43;;;;;;;13.43;11.22;;;;;;;;;;1779700;80;21057;-80
2022/04/16 07:36:09;;;;;;;14.15;10.70;;;;;;;;;;1779818;80;21076;-80
2022/04/16 07:38:37;;;;;;;11.88;8.53;;;;;;;;;;1779532;80;21136;-80
2022/04/16 07:41:03;;;;;;;14.38;10.93;;;;;;;;;;1779901;80;21061;-79
2022/04/16 07:43:32;;;;;;;13.25;9.85;;;;;;;;;;1779674;80;21068;-80
2022/04/16 07:45:58;;;;;;;14.83;10.95;;;;;;;;;;1779805;80;21009;-79
2022/04/16 07:48:25;;;;;;;14.83;11.18;;;;;;;;;;1780079;80;21508;-80
2022/04/16 07:50:52;;;;;;;13.28;8.68;;;;;;;;;;1779776;80;21095;-80
2022/04/16 07:53:19;;;;;;;13.58;10.55;;;;;;;;;;1779698;80;21056;-79
2022/04/16 07:55:45;;;;;;;10.60;8.88;;;;;;;;;;1779529;80;21067;-79
2022/04/16 07:58:11;;;;;;;11.95;7.97;;;;;;;;;;1779637;80;21080;-79
2022/04/16 08:00:39;;;;;;;11.97;9.05;;;;;;;;;;1779963;80;21033;-79
2022/04/16 08:03:07;;;;;;;11.00;7.70;;;;;;;;;;1779598;80;21064;-79
2022/04/16 08:05:33;;;;;;;11.22;8.63;;;;;;;;;;1780229;80;21076;-79
2022/04/16 08:07:59;;;;;;;9.45;7.67;;;;;;;;;;1779953;80;21306;-79
2022/04/16 08:10:26;;;;;;;10.93;8.03;;;;;;;;;;1780028;80;21060;-79
2022/04/16 08:12:52;;;;;;;10.45;6.80;;;;;;;;;;1780061;80;20989;-79
2022/04/16 08:15:20;;;;;;;11.63;9.28;;;;;;;;;;1779748;80;21084;-80
2022/04/16 08:17:47;;;;;;;11.00;7.50;;;;;;;;;;1779957;80;21064;-80
2022/04/16 08:20:13;;;;;;;10.60;8.33;;;;;;;;;;1779914;80;20989;-78
2022/04/16 08:22:46;;;;;;;12.88;8.75;;;;;;;;;;1779603;80;21129;-79
2022/04/16 08:27:48;;;;;;;11.83;8.03;;;;;;;;;;1779710;80;21017;-78
2022/04/16 08:30:16;;;;;;;9.55;6.62;;;;;;;;;;1778991;80;21612;-78
2022/04/16 08:32:42;;;;;;;9.20;7.70;;;;;;;;;;1779812;80;21005;-78
2022/04/16 08:35:10;;;;;;;10.68;7.78;;;;;;;;;;1779470;80;21025;-78
2022/04/16 08:37:37;;;;;;;8.25;6.03;;;;;;;;;;1779835;80;21072;-78
2022/04/16 08:40:04;;;;;;;8.75;6.97;;;;;;;;;;1779778;80;21004;-78
2022/04/16 08:42:32;;;;;;;9.13;6.50;;;;;;;;;;1779711;80;21096;-78
2022/04/16 08:44:59;;;;;;;10.90;8.55;;;;;;;;;;1779755;80;21056;-78
2022/04/16 08:47:25;;;;;;;9.98;7.08;;;;;;;;;;1779880;80;21021;-78
2022/04/16 08:49:51;;;;;;;7.58;6.58;;;;;;;;;;1779850;80;21064;-78
2022/04/16 08:52:17;;;;;;;8.38;6.67;;;;;;;;;;1779981;80;21035;-78
2022/04/16 08:54:43;;;;;;;8.98;7.47;;;;;;;;;;1779735;80;21009;-78
2022/04/16 08:57:09;;;;;;;7.65;5.75;;;;;;;;;;1779535;80;21139;-78
2022/04/16 08:59:35;;;;;;;8.15;5.80;;;;;;;;;;1779766;80;21029;-78
2022/04/16 09:02:02;;;;;;;8.78;7.33;;;;;;;;;;1779827;80;21560;-78
2022/04/16 09:04:31;;;;;;;11.93;6.92;;;;;;;;;;1779591;80;21033;-78
2022/04/16 09:07:00;;;;;;;9.15;5.42;;;;;;;;;;1778826;80;21128;-78
2022/04/16 09:09:26;;;;;;;6.67;4.92;;;;;;;;;;1776809;81;21009;-78
2022/04/16 09:11:52;;;;;;;8.05;6.28;;;;;;;;;;1776860;81;21061;-78
2022/04/16 09:14:18;;;;;;;8.28;5.97;;;;;;;;;;1776831;81;20977;-78
2022/04/16 09:16:44;;;;;;;10.45;7.22;;;;;;;;;;1776822;81;21508;-78
2022/04/16 09:31:11;;;;;;;9.05;5.80;;;;;;;;;;1801963;79;22977;-72
2022/04/16 09:33:39;;;;;;;7.70;5.28;;;;;;;;;;1784033;80;21047;-72
2022/04/16 09:36:05;;;;;;;8.00;5.85;;;;;;;;;;1796137;79;21044;-73
2022/04/16 09:38:34;;;;;;;8.45;6.10;;;;;;;;;;1769035;80;21042;-72
2022/04/16 09:41:04;;;;;;;10.50;5.58;;;;;;;;;;1767365;80;20982;-72
2022/04/16 09:43:37;;;;;;;6.87;4.53;;;;;;;;;;1787640;80;20953;-72
2022/04/16 09:46:05;;;;;;;6.43;4.33;;;;;;;;;;1796360;80;21018;-72
2022/04/16 09:48:31;;;;;;;7.80;5.05;;;;;;;;;;1777708;80;21578;-72
2022/04/16 09:50:58;;;;;;;8.43;5.20;;;;;;;;;;1761665;81;21060;-72
2022/04/16 09:53:24;;;;;;;6.75;4.70;;;;;;;;;;1758985;80;21028;-73
2022/04/16 09:55:51;;;;;;;7.90;5.58;;;;;;;;;;1788644;80;20968;-71
2022/04/16 09:58:17;;;;;;;9.38;5.87;;;;;;;;;;1762133;80;21012;-71
2022/04/16 10:00:44;;;;;;;7.22;4.87;;;;;;;;;;1741402;81;21028;-72
2022/04/16 10:03:10;;;;;;;7.42;5.60;;;;;;;;;;1781080;80;21508;-72
2022/04/16 10:05:36;;;;;;;7.67;4.97;;;;;;;;;;1763959;80;21370;-72
2022/04/16 10:08:03;;;;;;;9.90;5.50;;;;;;;;;;1759913;81;20997;-71
2022/04/16 10:10:40;;;;;;;7.78;5.22;;;;;;;;;;1755874;82;21122;-72
2022/04/16 10:13:04;;;;;;;8.58;5.12;;;;;;;;;;1756520;80;21079;-72
2022/04/16 10:29:24;;;;;;;4.87;3.30;;;;;;;;;;1792173;80;22396;-71
2022/04/16 10:31:50;;;;;;;6.15;2.98;;;;;;;;;;1763303;81;21288;-71
2022/04/16 10:34:20;;;;;;;4.17;2.80;;;;;;;;;;1742992;81;20988;-72
2022/04/16 10:36:52;;;;;;;4.25;2.12;;;;;;;;;;1755406;81;20997;-70
2022/04/16 10:39:27;;;;;;;3.85;2.42;;;;;;;;;;1758845;81;21048;-70
2022/04/16 10:41:57;;;;;;;3.50;2.30;;;;;;;;;;1762442;81;21030;-70
2022/04/16 10:44:23;;;;;;;2.50;1.72;;;;;;;;;;1766142;81;20970;-70
2022/04/16 10:46:50;;;;;;;1.98;1.57;;;;;;;;;;1763494;81;21087;-70
2022/04/16 10:49:17;;;;;;;1.85;1.30;;;;;;;;;;1765786;81;21068;-70
2022/04/16 10:51:43;;;;;;;2.62;1.90;;;;;;;;;;1761105;81;21546;-70
2022/04/16 10:54:11;;;;;;;2.75;1.90;;;;;;;;;;1759830;81;21047;-70
2022/04/16 10:56:43;;;;;;;3.65;2.35;;;;;;;;;;1745280;81;21063;-70
2022/04/16 10:59:10;;;;;;;4.35;2.25;;;;;;;;;;1764145;81;21026;-70
2022/04/16 11:01:36;;;;;;;2.77;1.65;;;;;;;;;;1761828;81;20997;-70
2022/04/16 11:04:14;;;;;;;3.60;1.75;;;;;;;;;;1762088;81;21030;-70
2022/04/16 11:06:54;;;;;;;5.20;2.98;;;;;;;;;;1750348;81;21026;-70
2022/04/16 11:09:20;;;;;;;4.97;1.82;;;;;;;;;;1759980;81;21123;-70
2022/04/16 11:11:51;;;;;;;2.33;1.77;;;;;;;;;;1764878;80;21022;-70
2022/04/16 11:14:18;;;;;;;5.90;2.30;;;;;;;;;;1761587;81;21482;-70
2022/04/16 11:16:45;;;;;;;2.72;1.87;;;;;;;;;;1768320;81;21043;-70
2022/04/16 11:19:13;;;;;;;2.85;2.17;;;;;;;;;;1750154;81;21074;-69
2022/04/16 11:21:39;;;;;;;3.27;2.00;;;;;;;;;;1742293;82;21012;-70
2022/04/16 11:24:07;;;;;;;1.65;1.35;;;;;;;;;;1737081;82;21047;-70
2022/04/16 11:34:53;;;;;;;4.53;1.42;;;;;;;;;;1742426;82;21064;-70
2022/04/16 11:37:20;;;;;;;3.08;1.62;;;;;;;;;;1727585;82;21044;-70
2022/04/16 11:39:46;;;;;;;1.77;1.30;;;;;;;;;;1729351;82;21500;-70
2022/04/16 11:42:12;;;;;;;3.05;1.52;;;;;;;;;;1746067;82;21056;-70
2022/04/16 11:44:42;;;;;;;1.50;1.40;;;;;;;;;;1741525;82;21028;-70
2022/04/16 11:47:10;;;;;;;1.45;1.27;;;;;;;;;;1725245;82;21603;-70
2022/04/16 11:49:39;;;;;;;1.55;1.30;;;;;;;;;;1745577;82;21040;-70
2022/04/16 11:52:07;;;;;;;2.75;1.60;;;;;;;;;;1734612;82;21044;-70
2022/04/16 11:54:33;;;;;;;1.35;1.25;;;;;;;;;;1743902;82;21568;-71
2022/04/16 11:56:59;;;;;;;1.80;1.45;;;;;;;;;;1742293;82;21131;-70
2022/04/16 11:59:26;;;;;;;3.10;1.60;;;;;;;;;;1736615;82;21092;-70
2022/04/16 12:01:58;;;;;;;1.45;1.30;;;;;;;;;;1735625;82;21055;-70
2022/04/16 12:04:43;;;;;;;3.25;1.67;;;;;;;;;;1737844;82;20997;-71
2022/04/16 12:07:10;;;;;;;3.87;2.00;;;;;;;;;;1734061;82;21091;-70
2022/04/16 12:09:36;;;;;;;2.02;1.62;;;;;;;;;;1727231;83;21593;-70
2022/04/16 12:12:05;;;;;;;3.75;2.30;;;;;;;;;;1716035;84;21067;-70
2022/04/16 12:14:31;;;;;;;1.85;1.55;;;;;;;;;;1717461;82;20995;-70
2022/04/16 12:16:59;;;;;;;2.87;1.90;;;;;;;;;;1746726;82;21016;-70
2022/04/16 12:19:30;;;;;;;1.70;1.35;;;;;;;;;;1751637;82;21052;-70
2022/04/16 12:21:58;;;;;;;3.17;2.23;;;;;;;;;;1751622;82;21005;-70
2022/04/16 12:24:28;;;;;;;3.17;1.80;;;;;;;;;;1751456;82;21064;-70
2022/04/16 12:26:56;;;;;;;2.35;1.75;;;;;;;;;;1749980;82;21028;-69
2022/04/16 12:29:28;;;;;;;2.83;1.60;;;;;;;;;;1751298;82;21524;-70
2022/04/16 12:31:56;;;;;;;1.90;1.60;;;;;;;;;;1750573;82;21076;-70
2022/04/16 12:34:22;;;;;;;2.98;1.72;;;;;;;;;;1749337;82;21076;-71
2022/04/16 12:36:48;;;;;;;2.75;1.80;;;;;;;;;;1748895;82;21107;-70
2022/04/16 12:39:16;;;;;;;2.42;1.82;;;;;;;;;;1749005;82;21045;-71
2022/04/16 12:41:42;;;;;;;2.20;1.57;;;;;;;;;;1746205;82;21563;-71
2022/04/16 12:44:08;;;;;;;2.83;1.80;;;;;;;;;;1730817;83;21550;-71
2022/04/16 12:46:34;;;;;;;1.65;1.42;;;;;;;;;;1743426;82;20993;-71
2022/04/16 12:49:00;;;;;;;1.72;1.50;;;;;;;;;;1745056;82;20984;-71
2022/04/16 12:51:27;;;;;;;17.42;6.92;;;;;;;;;;1738904;82;21033;-70
2022/04/16 12:53:53;;;;;;;10.48;3.42;;;;;;;;;;1730707;83;21029;-71
2022/04/16 12:56:19;;;;;;;2.40;1.60;;;;;;;;;;1730616;83;21464;-71
2022/04/16 12:58:45;;;;;;;1.35;1.15;;;;;;;;;;1737237;82;21023;-71
2022/04/16 13:01:11;;;;;;;1.32;1.20;;;;;;;;;;1736808;82;21076;-69
2022/04/16 13:03:38;;;;;;;2.45;1.50;;;;;;;;;;1742584;82;21071;-70
2022/04/16 13:06:04;;;;;;;1.70;1.52;;;;;;;;;;1738497;82;21571;-70
2022/04/16 13:08:31;;;;;;;4.33;2.10;;;;;;;;;;1705776;84;21055;-70
2022/04/16 13:10:58;;;;;;;9.63;3.58;;;;;;;;;;1703982;83;21062;-70
2022/04/16 13:13:24;;;;;;;6.80;2.60;;;;;;;;;;1704096;84;21055;-70
2022/04/16 13:15:52;;;;;;;7.25;2.77;;;;;;;;;;1709525;83;21112;-70
2022/04/16 13:18:18;;;;;;;2.22;1.70;;;;;;;;;;1673119;86;21116;-70
2022/04/16 13:20:44;;;;;;;3.00;2.15;;;;;;;;;;1703814;84;21134;-71
2022/04/16 13:23:10;;;;;;;3.95;2.15;;;;;;;;;;1672539;85;21044;-71
2022/04/16 13:25:36;;;;;;;4.17;1.90;;;;;;;;;;1704564;84;20982;-71
2022/04/16 13:28:04;;;;;;;6.05;3.20;;;;;;;;;;1688490;84;21520;-71
2022/04/16 13:30:30;;;;;;;1.60;1.42;;;;;;;;;;1675044;85;21060;-71
2022/04/16 13:32:58;;;;;;;6.83;3.08;;;;;;;;;;1696598;84;21112;-71
2022/04/16 13:35:24;;;;;;;5.12;2.20;;;;;;;;;;1654651;87;21740;-71
2022/04/16 13:37:52;;;;;;;2.92;1.80;;;;;;;;;;1686477;85;21029;-71
2022/04/16 13:43:02;;;;;;;2.30;1.70;;;;;;;;;;1680123;85;21035;-71
2022/04/16 13:45:29;;;;;;;1.95;1.55;;;;;;;;;;1668306;85;21080;-71
2022/04/16 13:47:55;;;;;;;2.52;1.50;;;;;;;;;;1656251;86;21094;-71
2022/04/16 13:50:22;;;;;;;1.90;1.60;;;;;;;;;;1677217;85;21052;-71
2022/04/16 13:52:48;;;;;;;1.60;1.50;;;;;;;;;;1676129;85;21476;-71
2022/04/16 13:55:14;;;;;;;1.85;1.65;;;;;;;;;;1669878;85;21083;-70
2022/04/16 13:57:40;;;;;;;2.45;1.62;;;;;;;;;;1669892;86;21100;-70
2022/04/16 14:00:08;;;;;;;2.67;1.70;;;;;;;;;;1669808;86;21036;-71
2022/04/16 14:02:43;;;;;;;3.80;2.10;;;;;;;;;;1669837;86;21075;-71
2022/04/16 14:07:55;;;;;;;3.80;2.27;;;;;;;;;;1669606;86;21615;-70
2022/04/16 14:10:27;;;;;;;6.20;3.10;;;;;;;;;;1673291;85;21100;-71
2022/04/16 14:12:54;;;;;;;4.40;2.40;;;;;;;;;;1673797;85;21077;-70
2022/04/16 14:15:20;;;;;;;2.37;1.80;;;;;;;;;;1667951;86;21595;-70
2022/04/16 14:17:46;;;;;;;2.95;2.10;;;;;;;;;;1686276;85;21067;-70
2022/04/16 14:20:12;;;;;;;4.60;2.65;;;;;;;;;;1682890;85;22104;-70
2022/04/16 14:22:38;;;;;;;6.08;2.60;;;;;;;;;;1665931;85;21049;-70
2022/04/16 14:25:04;;;;;;;6.10;2.55;;;;;;;;;;1686819;85;21548;-70
2022/04/16 14:27:31;;;;;;;3.12;2.20;;;;;;;;;;1677909;85;21100;-71
2022/04/16 14:29:58;;;;;;;4.25;2.60;;;;;;;;;;1670024;85;21108;-71
2022/04/16 14:32:24;;;;;;;3.35;2.20;;;;;;;;;;1625600;86;21568;-71
2022/04/16 14:34:52;;;;;;;3.62;2.40;;;;;;;;;;1618199;89;21103;-71
2022/04/16 14:37:19;;;;;;;3.30;2.40;;;;;;;;;;1618263;89;21568;-70
2022/04/16 14:39:45;;;;;;;3.67;2.42;;;;;;;;;;1645143;86;21560;-70
2022/04/16 14:42:12;;;;;;;4.85;2.58;;;;;;;;;;1663744;86;21092;-71
2022/04/16 14:44:43;;;;;;;2.55;2.10;;;;;;;;;;1671442;85;21028;-70
2022/04/16 14:47:09;;;;;;;3.50;2.40;;;;;;;;;;1655256;86;21056;-70
2022/04/16 14:49:35;;;;;;;4.03;2.27;;;;;;;;;;1685833;85;21092;-70
2022/04/16 14:52:02;;;;;;;4.00;2.80;;;;;;;;;;1672479;86;21020;-70
2022/04/16 14:54:28;;;;;;;3.52;2.22;;;;;;;;;;1676159;85;21067;-70
2022/04/16 14:56:55;;;;;;;3.83;2.33;;;;;;;;;;1659303;86;21608;-71
2022/04/16 14:59:22;;;;;;;3.87;2.50;;;;;;;;;;1654827;86;21044;-71
2022/04/16 15:01:48;;;;;;;6.60;2.77;;;;;;;;;;1650530;87;21111;-71
2022/04/16 15:04:16;;;;;;;3.70;2.30;;;;;;;;;;1622511;88;21061;-71
2022/04/16 15:06:42;;;;;;;3.08;2.25;;;;;;;;;;1641305;86;21487;-71
2022/04/16 15:09:08;;;;;;;7.40;2.95;;;;;;;;;;1653599;86;21000;-71
2022/04/16 15:11:36;;;;;;;6.50;2.85;;;;;;;;;;1649371;87;21143;-71
2022/04/16 15:14:02;;;;;;;5.37;3.15;;;;;;;;;;1688978;85;21084;-71
2022/04/16 15:16:30;;;;;;;6.53;4.10;;;;;;;;;;1695355;85;21592;-71
2022/04/16 15:18:56;;;;;;;6.30;3.62;;;;;;;;;;1692800;85;21413;-71
2022/04/16 15:21:25;;;;;;;5.22;2.92;;;;;;;;;;1654462;87;21653;-70
2022/04/16 15:23:51;;;;;;;6.00;3.45;;;;;;;;;;1655735;87;21717;-71
2022/04/16 15:26:17;;;;;;;4.62;2.90;;;;;;;;;;1643635;87;21096;-71
2022/04/16 15:28:43;;;;;;;4.40;2.65;;;;;;;;;;1677489;84;21053;-71
2022/04/16 15:31:12;;;;;;;3.30;2.33;;;;;;;;;;1698294;84;21490;-72
2022/04/16 15:33:38;;;;;;;2.77;2.17;;;;;;;;;;1668905;86;21056;-71
2022/04/16 15:36:04;;;;;;;2.98;2.30;;;;;;;;;;1672898;86;21544;-71
2022/04/16 15:38:30;;;;;;;3.85;2.55;;;;;;;;;;1701472;84;21036;-71
2022/04/16 15:40:57;;;;;;;3.35;2.55;;;;;;;;;;1696070;84;22269;-70
2022/04/16 15:43:24;;;;;;;4.45;2.85;;;;;;;;;;1663905;86;21052;-70
2022/04/16 15:45:50;;;;;;;3.77;2.65;;;;;;;;;;1667598;86;21525;-71
2022/04/16 15:48:16;;;;;;;4.85;2.80;;;;;;;;;;1696971;84;21080;-71
2022/04/16 15:50:44;;;;;;;3.92;2.83;;;;;;;;;;1670649;86;21619;-71
2022/04/16 15:53:10;;;;;;;5.75;3.50;;;;;;;;;;1671255;86;21044;-71
2022/04/16 15:55:38;;;;;;;6.37;3.58;;;;;;;;;;1665793;85;21085;-71
2022/04/16 15:58:04;;;;;;;5.92;4.17;;;;;;;;;;1695693;84;21045;-70
2022/04/16 16:00:30;;;;;;;6.50;3.45;;;;;;;;;;1696783;84;21076;-71
2022/04/16 16:02:56;;;;;;;5.22;2.95;;;;;;;;;;1697283;84;21084;-71
2022/04/16 16:05:24;;;;;;;6.08;3.50;;;;;;;;;;1692517;84;21556;-71
2022/04/16 16:07:52;;;;;;;6.60;3.58;;;;;;;;;;1668952;86;21081;-71
2022/04/16 16:10:19;;;;;;;7.35;3.55;;;;;;;;;;1687484;84;21119;-71
2022/04/16 16:12:47;;;;;;;7.08;4.10;;;;;;;;;;1672981;85;21642;-70
2022/04/16 16:15:13;;;;;;;6.72;3.98;;;;;;;;;;1676492;84;21052;-71
2022/04/16 16:17:46;;;;;;;10.80;4.10;;;;;;;;;;1688845;84;21120;-71
2022/04/16 16:20:07;;;;;;;6.47;3.85;;;;;;;;;;1672381;85;21060;-71
2022/04/16 16:22:33;;;;;;;6.75;4.00;;;;;;;;;;1673198;86;21048;-71
2022/04/16 16:25:01;;;;;;;5.05;3.08;;;;;;;;;;1674265;84;21517;-70
2022/04/16 16:27:28;;;;;;;5.58;3.62;;;;;;;;;;1697395;84;21088;-71
2022/04/16 16:29:57;;;;;;;6.97;4.25;;;;;;;;;;1693720;84;21122;-71
2022/04/16 16:32:30;;;;;;;7.83;3.95;;;;;;;;;;1698219;84;21535;-69
2022/04/16 16:34:52;;;;;;;7.15;4.35;;;;;;;;;;1676855;84;21041;-70
2022/04/16 16:37:18;;;;;;;6.92;4.00;;;;;;;;;;1674099;85;22184;-71
2022/04/16 16:39:46;;;;;;;7.10;4.25;;;;;;;;;;1668810;86;21093;-70
2022/04/16 16:42:15;;;;;;;7.12;3.77;;;;;;;;;;1658399;86;21617;-71
2022/04/16 16:44:42;;;;;;;5.42;3.87;;;;;;;;;;1680625;85;21101;-70
2022/04/16 16:47:08;;;;;;;7.95;4.20;;;;;;;;;;1672776;85;21524;-71
2022/04/16 16:49:33;;;;;;;9.93;4.40;;;;;;;;;;1666437;86;21080;-71
2022/04/16 16:51:59;;;;;;;8.45;4.00;;;;;;;;;;1666394;86;21037;-71
2022/04/16 16:54:25;;;;;;;9.28;5.00;;;;;;;;;;1673275;85;21511;-71
2022/04/16 16:56:51;;;;;;;7.67;4.08;;;;;;;;;;1679427;85;21575;-71
2022/04/16 16:59:17;;;;;;;7.62;3.85;;;;;;;;;;1689776;84;21066;-71
2022/04/16 17:01:46;;;;;;;5.55;3.60;;;;;;;;;;1678345;85;21052;-70
2022/04/16 17:09:46;;;;;;;4.25;2.62;;;;;;;;;;1677295;85;21028;-73
2022/04/16 17:12:12;;;;;;;7.75;4.15;;;;;;;;;;1677386;84;21017;-73
2022/04/16 17:20:09;;;;;;;2.42;2.05;;;;;;;;;;1677510;84;21058;-72
2022/04/16 17:22:37;;;;;;;5.28;3.10;;;;;;;;;;1656782;86;21070;-72
2022/04/16 17:25:04;;;;;;;5.78;3.00;;;;;;;;;;1668480;86;21079;-70
2022/04/16 17:27:30;;;;;;;4.55;3.00;;;;;;;;;;1705419;84;21020;-70
2022/04/16 17:29:56;;;;;;;5.20;3.10;;;;;;;;;;1665996;86;21106;-72
2022/04/16 17:32:23;;;;;;;3.42;2.60;;;;;;;;;;1699902;84;21056;-71
2022/04/16 17:34:49;;;;;;;3.90;2.60;;;;;;;;;;1698354;84;21532;-71
2022/04/16 17:37:16;;;;;;;3.87;3.00;;;;;;;;;;1671506;86;21025;-71
2022/04/16 17:39:41;;;;;;;4.00;2.92;;;;;;;;;;1701328;84;21020;-71
2022/04/16 17:42:09;;;;;;;5.12;2.52;;;;;;;;;;1697457;84;21024;-72
2022/04/16 17:44:37;;;;;;;5.87;2.98;;;;;;;;;;1679352;85;21057;-72
2022/04/16 17:47:06;;;;;;;6.60;3.30;;;;;;;;;;1679363;85;21081;-71
2022/04/16 17:49:32;;;;;;;3.90;2.50;;;;;;;;;;1679485;85;21086;-71
2022/04/16 17:51:59;;;;;;;4.67;2.80;;;;;;;;;;1679497;85;21064;-71
2022/04/16 17:54:29;;;;;;;7.97;3.40;;;;;;;;;;1667554;86;21044;-70
2022/04/16 17:56:56;;;;;;;7.10;3.50;;;;;;;;;;1679295;85;21086;-70
2022/04/16 17:59:22;;;;;;;5.35;3.33;;;;;;;;;;1667451;86;21520;-71
2022/04/16 18:01:50;;;;;;;6.00;2.83;;;;;;;;;;1668883;86;21026;-70
2022/04/16 18:04:17;;;;;;;5.08;2.70;;;;;;;;;;1704331;84;21068;-70
2022/04/16 18:06:44;;;;;;;6.87;3.72;;;;;;;;;;1699158;84;21013;-70
2022/04/16 18:09:10;;;;;;;7.85;4.25;;;;;;;;;;1703118;84;21005;-72
2022/04/16 18:11:37;;;;;;;5.42;2.95;;;;;;;;;;1713430;84;21642;-70
2022/04/16 18:14:04;;;;;;;5.50;2.75;;;;;;;;;;1704295;84;21029;-70
2022/04/16 18:16:30;;;;;;;4.05;3.00;;;;;;;;;;1679439;85;21018;-70
2022/04/16 18:18:59;;;;;;;4.45;3.30;;;;;;;;;;1667361;86;21139;-71
2022/04/16 18:21:25;;;;;;;4.70;2.72;;;;;;;;;;1679310;85;21607;-70
2022/04/16 18:23:54;;;;;;;3.37;2.52;;;;;;;;;;1663481;85;21061;-71
2022/04/16 18:26:20;;;;;;;4.70;3.00;;;;;;;;;;1699085;84;21071;-71
2022/04/16 18:28:48;;;;;;;4.45;2.58;;;;;;;;;;1713521;84;21065;-70
2022/04/16 18:31:15;;;;;;;4.50;2.85;;;;;;;;;;1707952;83;21091;-70
2022/04/16 18:33:43;;;;;;;3.55;2.40;;;;;;;;;;1690788;85;21084;-70
2022/04/16 18:36:08;;;;;;;3.87;2.70;;;;;;;;;;1667551;85;21086;-71
2022/04/16 18:38:35;;;;;;;4.55;3.02;;;;;;;;;;1703955;84;21076;-70
2022/04/16 18:41:01;;;;;;;4.95;2.40;;;;;;;;;;1691978;85;21002;-70
2022/04/16 18:43:28;;;;;;;5.35;3.40;;;;;;;;;;1681041;85;21597;-71
2022/04/16 18:45:54;;;;;;;8.18;3.95;;;;;;;;;;1701954;84;21516;-71
2022/04/16 18:48:20;;;;;;;7.60;3.70;;;;;;;;;;1674154;85;21017;-71
2022/04/16 18:50:47;;;;;;;7.42;3.90;;;;;;;;;;1702725;84;21107;-71
2022/04/16 18:53:13;;;;;;;11.90;4.72;;;;;;;;;;1690555;85;21518;-71
2022/04/16 18:55:41;;;;;;;10.23;4.55;;;;;;;;;;1658783;85;21159;-71
2022/04/16 18:58:07;;;;;;;7.53;3.70;;;;;;;;;;1686742;85;21036;-70